sensor_id;sensor_type;location;lat;lon;timestamp;temperature;humidity
32095;DHT22;18608;53.688;10.748;2023-03-01T00:01:34;-0.30;99.90
32095;DHT22;18608;53.688;10.748;2023-03-01T00:04:00;-0.40;99.90
32095;DHT22;18608;53.688;10.748;2023-03-01T00:06:26;-0.30;99.90
32095;DHT22;18608;53.688;10.748;2023-03-01T00:08:52;-0.30;99.90
32095;DHT22;18608;53.688;10.748;2023-03-01T00:11:23;-0.20;99.90
32095;DHT22;18608;53.688;10.748;2023-03-01T00:13:51;-0.20;99.90
32095;DHT22;18608;53.688;10.748;2023-03-01T00:16:26;-0.30;99.90
32095;DHT22;18608;53.688;10.748;2023-03-01T00:18:56;-0.30;99.90
32095;DHT22;18608;53.688;10.748;2023-03-01T00:21:22;-0.20;99.90
32095;DHT22;18608;53.688;10.748;2023-03-01T00:23:49;-0.20;99.90
32095;DHT22;18608;53.688;10.748;2023-03-01T00:26:16;-0.20;99.90
32095;DHT22;18608;53.688;10.748;2023-03-01T00:28:43;-0.30;99.90
32095;DHT22;18608;53.688;10.748;2023-03-01T00:31:14;-0.30;99.90
32095;DHT22;18608;53.688;10.748;2023-03-01T00:33:41;-0.20;99.90
32095;DHT22;18608;53.688;10.748;2023-03-01T00:36:07;-0.30;99.90
32095;DHT22;18608;53.688;10.748;2023-03-01T00:38:37;-0.20;99.90
32095;DHT22;18608;53.688;10.748;2023-03-01T00:41:05;-0.20;99.90
32095;DHT22;18608;53.688;10.748;2023-03-01T00:43:31;-0.20;99.90
32095;DHT22;18608;53.688;10.748;2023-03-01T00:46:02;-0.20;99.90
32095;DHT22;18608;53.688;10.748;2023-03-01T00:48:28;-0.60;99.90
32095;DHT22;18608;53.688;10.748;2023-03-01T00:50:54;-0.20;99.90
32095;DHT22;18608;53.688;10.748;2023-03-01T00:53:19;-0.20;99.90
32095;DHT22;18608;53.688;10.748;2023-03-01T00:55:45;-0.20;99.90
32095;DHT22;18608;53.688;10.748;2023-03-01T00:58:10;-0.20;99.90
32095;DHT22;18608;53.688;10.748;2023-03-01T01:00:36;-0.20;99.90
32095;DHT22;18608;53.688;10.748;2023-03-01T01:03:02;-0.20;99.90
32095;DHT22;18608;53.688;10.748;2023-03-01T01:05:27;-0.20;99.90
32095;DHT22;18608;53.688;10.748;2023-03-01T01:07:53;-0.20;99.90
32095;DHT22;18608;53.688;10.748;2023-03-01T01:10:18;-0.30;99.90
32095;DHT22;18608;53.688;10.748;2023-03-01T01:12:46;-0.20;99.90
32095;DHT22;18608;53.688;10.748;2023-03-01T01:15:12;-0.20;99.90
32095;DHT22;18608;53.688;10.748;2023-03-01T01:17:39;-0.30;99.90
32095;DHT22;18608;53.688;10.748;2023-03-01T01:20:06;-0.20;99.90
32095;DHT22;18608;53.688;10.748;2023-03-01T01:22:32;-0.30;99.90
32095;DHT22;18608;53.688;10.748;2023-03-01T01:24:58;-0.30;99.90
32095;DHT22;18608;53.688;10.748;2023-03-01T01:27:23;-0.30;99.90
32095;DHT22;18608;53.688;10.748;2023-03-01T01:29:49;-0.40;99.90
32095;DHT22;18608;53.688;10.748;2023-03-01T01:32:15;-0.40;99.90
32095;DHT22;18608;53.688;10.748;2023-03-01T01:34:40;-0.50;99.90
32095;DHT22;18608;53.688;10.748;2023-03-01T01:37:06;-0.50;99.90
32095;DHT22;18608;53.688;10.748;2023-03-01T01:39:34;-0.50;99.90
32095;DHT22;18608;53.688;10.748;2023-03-01T01:42:00;-0.50;99.90
32095;DHT22;18608;53.688;10.748;2023-03-01T01:44:27;-0.40;99.90
32095;DHT22;18608;53.688;10.748;2023-03-01T01:47:05;-0.50;99.90
32095;DHT22;18608;53.688;10.748;2023-03-01T01:49:47;-0.50;99.90
32095;DHT22;18608;53.688;10.748;2023-03-01T01:52:27;-0.50;99.90
32095;DHT22;18608;53.688;10.748;2023-03-01T01:54:59;-0.50;99.90
32095;DHT22;18608;53.688;10.748;2023-03-01T01:57:32;-0.50;99.90
32095;DHT22;18608;53.688;10.748;2023-03-01T02:00:03;-0.50;99.90
32095;DHT22;18608;53.688;10.748;2023-03-01T02:02:30;-0.50;99.90
32095;DHT22;18608;53.688;10.748;2023-03-01T02:07:50;-0.50;99.90
32095;DHT22;18608;53.688;10.748;2023-03-01T02:10:16;-0.50;99.90
32095;DHT22;18608;53.688;10.748;2023-03-01T02:12:42;-0.60;99.90
32095;DHT22;18608;53.688;10.748;2023-03-01T02:15:09;-0.60;99.90
32095;DHT22;18608;53.688;10.748;2023-03-01T02:17:35;-0.60;99.90
32095;DHT22;18608;53.688;10.748;2023-03-01T02:22:47;-0.70;99.90
32095;DHT22;18608;53.688;10.748;2023-03-01T02:30:42;-0.80;99.90
32095;DHT22;18608;53.688;10.748;2023-03-01T02:33:29;-0.80;99.90
32095;DHT22;18608;53.688;10.748;2023-03-01T02:36:00;-0.80;99.90
32095;DHT22;18608;53.688;10.748;2023-03-01T02:38:27;-0.80;99.90
32095;DHT22;18608;53.688;10.748;2023-03-01T02:40:53;-0.80;99.90
32095;DHT22;18608;53.688;10.748;2023-03-01T02:43:21;-0.90;99.90
32095;DHT22;18608;53.688;10.748;2023-03-01T02:45:49;-0.90;99.90
32095;DHT22;18608;53.688;10.748;2023-03-01T02:48:15;-0.90;99.90
32095;DHT22;18608;53.688;10.748;2023-03-01T02:51:02;-0.80;99.90
32095;DHT22;18608;53.688;10.748;2023-03-01T02:56:01;-0.50;99.90
32095;DHT22;18608;53.688;10.748;2023-03-01T02:58:27;-0.80;99.90
32095;DHT22;18608;53.688;10.748;2023-03-01T03:00:52;-0.80;99.90
32095;DHT22;18608;53.688;10.748;2023-03-01T03:03:20;-0.80;99.90
32095;DHT22;18608;53.688;10.748;2023-03-01T03:05:47;-0.80;99.90
32095;DHT22;18608;53.688;10.748;2023-03-01T03:08:14;-0.70;99.90
32095;DHT22;18608;53.688;10.748;2023-03-01T03:10:42;-0.80;99.90
32095;DHT22;18608;53.688;10.748;2023-03-01T03:13:13;-0.80;99.90
32095;DHT22;18608;53.688;10.748;2023-03-01T03:15:40;-0.80;99.90
32095;DHT22;18608;53.688;10.748;2023-03-01T03:18:09;-0.80;99.90
32095;DHT22;18608;53.688;10.748;2023-03-01T03:20:36;-0.90;99.90
32095;DHT22;18608;53.688;10.748;2023-03-01T03:23:03;-0.90;99.90
32095;DHT22;18608;53.688;10.748;2023-03-01T03:25:29;-0.80;99.90
32095;DHT22;18608;53.688;10.748;2023-03-01T03:27:55;-0.80;99.90
32095;DHT22;18608;53.688;10.748;2023-03-01T03:30:29;-0.80;99.90
32095;DHT22;18608;53.688;10.748;2023-03-01T03:32:56;-1.00;99.90
32095;DHT22;18608;53.688;10.748;2023-03-01T03:35:34;-0.80;99.90
32095;DHT22;18608;53.688;10.748;2023-03-01T03:38:03;-0.70;99.90
32095;DHT22;18608;53.688;10.748;2023-03-01T03:40:39;-0.70;99.90
32095;DHT22;18608;53.688;10.748;2023-03-01T03:43:08;0.60;99.90
32095;DHT22;18608;53.688;10.748;2023-03-01T03:45:34;-0.70;99.90
32095;DHT22;18608;53.688;10.748;2023-03-01T03:48:01;-0.70;99.90
32095;DHT22;18608;53.688;10.748;2023-03-01T03:50:27;-0.60;99.90
32095;DHT22;18608;53.688;10.748;2023-03-01T03:52:53;-0.40;99.90
32095;DHT22;18608;53.688;10.748;2023-03-01T03:55:18;-0.50;99.90
32095;DHT22;18608;53.688;10.748;2023-03-01T03:57:45;-0.50;99.90
32095;DHT22;18608;53.688;10.748;2023-03-01T04:00:18;-0.40;99.90
32095;DHT22;18608;53.688;10.748;2023-03-01T04:02:46;-0.40;99.90
32095;DHT22;18608;53.688;10.748;2023-03-01T04:05:13;-0.30;99.90
32095;DHT22;18608;53.688;10.748;2023-03-01T04:07:40;-0.30;99.90
32095;DHT22;18608;53.688;10.748;2023-03-01T04:10:11;-0.30;99.90
32095;DHT22;18608;53.688;10.748;2023-03-01T04:12:37;-0.30;99.90
32095;DHT22;18608;53.688;10.748;2023-03-01T04:15:04;-0.20;99.90
32095;DHT22;18608;53.688;10.748;2023-03-01T04:17:46;-0.20;99.90
32095;DHT22;18608;53.688;10.748;2023-03-01T04:20:15;-0.20;99.90
32095;DHT22;18608;53.688;10.748;2023-03-01T04:22:43;-0.10;99.90
32095;DHT22;18608;53.688;10.748;2023-03-01T04:25:12;0.00;99.90
32095;DHT22;18608;53.688;10.748;2023-03-01T04:27:40;-0.10;99.90
32095;DHT22;18608;53.688;10.748;2023-03-01T04:30:07;0.00;99.90
32095;DHT22;18608;53.688;10.748;2023-03-01T04:32:33;0.10;99.90
32095;DHT22;18608;53.688;10.748;2023-03-01T04:34:59;0.20;99.90
32095;DHT22;18608;53.688;10.748;2023-03-01T04:37:25;0.20;99.90
32095;DHT22;18608;53.688;10.748;2023-03-01T04:39:50;0.30;99.90
32095;DHT22;18608;53.688;10.748;2023-03-01T04:42:16;0.30;99.90
32095;DHT22;18608;53.688;10.748;2023-03-01T04:44:42;0.40;99.90
32095;DHT22;18608;53.688;10.748;2023-03-01T04:47:08;1.20;99.90
32095;DHT22;18608;53.688;10.748;2023-03-01T04:49:34;0.50;99.90
32095;DHT22;18608;53.688;10.748;2023-03-01T04:52:00;0.60;99.90
32095;DHT22;18608;53.688;10.748;2023-03-01T04:54:28;0.50;99.90
32095;DHT22;18608;53.688;10.748;2023-03-01T04:56:54;0.60;99.90
32095;DHT22;18608;53.688;10.748;2023-03-01T04:59:20;0.60;99.90
32095;DHT22;18608;53.688;10.748;2023-03-01T05:01:50;4.00;99.90
32095;DHT22;18608;53.688;10.748;2023-03-01T05:04:15;0.60;99.90
32095;DHT22;18608;53.688;10.748;2023-03-01T05:06:41;0.70;99.90
32095;DHT22;18608;53.688;10.748;2023-03-01T05:09:06;0.70;99.90
32095;DHT22;18608;53.688;10.748;2023-03-01T05:11:32;0.70;99.90
32095;DHT22;18608;53.688;10.748;2023-03-01T05:14:03;0.80;99.90
32095;DHT22;18608;53.688;10.748;2023-03-01T05:16:29;3.40;99.90
32095;DHT22;18608;53.688;10.748;2023-03-01T05:18:56;0.80;99.90
32095;DHT22;18608;53.688;10.748;2023-03-01T05:21:22;0.80;99.90
32095;DHT22;18608;53.688;10.748;2023-03-01T05:23:47;0.80;99.90
32095;DHT22;18608;53.688;10.748;2023-03-01T05:26:14;0.80;99.90
32095;DHT22;18608;53.688;10.748;2023-03-01T05:28:39;0.90;99.90
32095;DHT22;18608;53.688;10.748;2023-03-01T05:31:06;0.90;99.90
32095;DHT22;18608;53.688;10.748;2023-03-01T05:33:39;0.90;99.90
32095;DHT22;18608;53.688;10.748;2023-03-01T05:36:06;0.80;99.90
32095;DHT22;18608;53.688;10.748;2023-03-01T05:38:33;0.90;99.90
32095;DHT22;18608;53.688;10.748;2023-03-01T05:40:58;0.90;99.90
32095;DHT22;18608;53.688;10.748;2023-03-01T05:45:50;0.90;99.90
32095;DHT22;18608;53.688;10.748;2023-03-01T05:48:16;0.90;99.90
32095;DHT22;18608;53.688;10.748;2023-03-01T05:50:45;1.00;99.90
32095;DHT22;18608;53.688;10.748;2023-03-01T05:53:15;1.00;99.90
32095;DHT22;18608;53.688;10.748;2023-03-01T05:55:41;1.10;99.90
32095;DHT22;18608;53.688;10.748;2023-03-01T05:58:11;1.20;99.90
32095;DHT22;18608;53.688;10.748;2023-03-01T06:00:39;1.10;99.90
32095;DHT22;18608;53.688;10.748;2023-03-01T06:03:05;1.20;99.90
32095;DHT22;18608;53.688;10.748;2023-03-01T06:05:31;1.10;99.90
32095;DHT22;18608;53.688;10.748;2023-03-01T06:08:00;1.10;99.90
32095;DHT22;18608;53.688;10.748;2023-03-01T06:10:27;1.10;99.90
32095;DHT22;18608;53.688;10.748;2023-03-01T06:12:53;1.10;99.90
32095;DHT22;18608;53.688;10.748;2023-03-01T06:15:19;1.10;99.90
32095;DHT22;18608;53.688;10.748;2023-03-01T06:17:45;1.20;99.90
32095;DHT22;18608;53.688;10.748;2023-03-01T06:20:17;1.10;99.90
32095;DHT22;18608;53.688;10.748;2023-03-01T06:22:43;1.20;99.90
32095;DHT22;18608;53.688;10.748;2023-03-01T06:25:10;1.20;99.90
32095;DHT22;18608;53.688;10.748;2023-03-01T06:27:37;1.20;99.90
32095;DHT22;18608;53.688;10.748;2023-03-01T06:30:03;1.20;99.90
32095;DHT22;18608;53.688;10.748;2023-03-01T06:32:29;1.20;99.90
32095;DHT22;18608;53.688;10.748;2023-03-01T06:34:55;1.20;99.90
32095;DHT22;18608;53.688;10.748;2023-03-01T06:37:21;1.30;99.90
32095;DHT22;18608;53.688;10.748;2023-03-01T06:39:46;1.30;99.90
32095;DHT22;18608;53.688;10.748;2023-03-01T06:42:12;1.30;99.90
32095;DHT22;18608;53.688;10.748;2023-03-01T06:44:37;1.40;99.90
32095;DHT22;18608;53.688;10.748;2023-03-01T06:47:04;1.40;99.90
32095;DHT22;18608;53.688;10.748;2023-03-01T06:49:29;1.40;99.90
32095;DHT22;18608;53.688;10.748;2023-03-01T06:51:56;1.50;99.90
32095;DHT22;18608;53.688;10.748;2023-03-01T06:54:21;1.60;99.90
32095;DHT22;18608;53.688;10.748;2023-03-01T06:56:48;1.70;99.90
32095;DHT22;18608;53.688;10.748;2023-03-01T06:59:14;1.70;99.90
32095;DHT22;18608;53.688;10.748;2023-03-01T07:01:40;1.80;99.90
32095;DHT22;18608;53.688;10.748;2023-03-01T07:04:05;1.90;99.90
32095;DHT22;18608;53.688;10.748;2023-03-01T07:06:31;1.90;99.90
32095;DHT22;18608;53.688;10.748;2023-03-01T07:08:56;2.00;99.90
32095;DHT22;18608;53.688;10.748;2023-03-01T07:11:22;2.10;99.90
32095;DHT22;18608;53.688;10.748;2023-03-01T07:13:48;2.40;99.90
32095;DHT22;18608;53.688;10.748;2023-03-01T07:16:14;2.40;99.90
32095;DHT22;18608;53.688;10.748;2023-03-01T07:18:40;2.50;99.90
32095;DHT22;18608;53.688;10.748;2023-03-01T07:21:12;2.60;99.90
32095;DHT22;18608;53.688;10.748;2023-03-01T07:23:37;2.80;99.90
32095;DHT22;18608;53.688;10.748;2023-03-01T07:26:03;3.00;99.90
32095;DHT22;18608;53.688;10.748;2023-03-01T07:28:29;3.40;99.90
32095;DHT22;18608;53.688;10.748;2023-03-01T07:31:00;3.80;99.90
32095;DHT22;18608;53.688;10.748;2023-03-01T07:33:26;4.30;99.90
32095;DHT22;18608;53.688;10.748;2023-03-01T07:35:59;4.60;99.90
32095;DHT22;18608;53.688;10.748;2023-03-01T07:38:26;5.00;99.90
32095;DHT22;18608;53.688;10.748;2023-03-01T07:40:52;5.30;99.90
32095;DHT22;18608;53.688;10.748;2023-03-01T07:43:17;5.40;99.90
32095;DHT22;18608;53.688;10.748;2023-03-01T07:45:43;5.50;99.90
32095;DHT22;18608;53.688;10.748;2023-03-01T07:48:09;5.60;99.90
32095;DHT22;18608;53.688;10.748;2023-03-01T07:50:35;5.90;99.90
32095;DHT22;18608;53.688;10.748;2023-03-01T07:53:00;6.20;99.90
32095;DHT22;18608;53.688;10.748;2023-03-01T07:55:26;6.30;99.90
32095;DHT22;18608;53.688;10.748;2023-03-01T07:57:51;6.70;99.90
32095;DHT22;18608;53.688;10.748;2023-03-01T08:00:17;6.60;99.90
32095;DHT22;18608;53.688;10.748;2023-03-01T08:02:43;6.70;99.90
32095;DHT22;18608;53.688;10.748;2023-03-01T08:05:09;7.00;99.90
32095;DHT22;18608;53.688;10.748;2023-03-01T08:07:35;7.20;99.90
32095;DHT22;18608;53.688;10.748;2023-03-01T08:10:01;7.20;99.90
32095;DHT22;18608;53.688;10.748;2023-03-01T08:12:26;7.20;99.90
32095;DHT22;18608;53.688;10.748;2023-03-01T08:14:53;7.50;99.90
32095;DHT22;18608;53.688;10.748;2023-03-01T08:17:19;7.40;99.90
32095;DHT22;18608;53.688;10.748;2023-03-01T08:19:44;7.10;99.90
32095;DHT22;18608;53.688;10.748;2023-03-01T08:22:10;7.10;99.90
32095;DHT22;18608;53.688;10.748;2023-03-01T08:24:36;6.80;99.90
32095;DHT22;18608;53.688;10.748;2023-03-01T08:27:01;7.00;99.90
32095;DHT22;18608;53.688;10.748;2023-03-01T08:29:30;7.00;99.90
32095;DHT22;18608;53.688;10.748;2023-03-01T08:31:55;7.10;99.90
32095;DHT22;18608;53.688;10.748;2023-03-01T08:34:21;6.90;99.90
32095;DHT22;18608;53.688;10.748;2023-03-01T08:36:46;6.80;99.90
32095;DHT22;18608;53.688;10.748;2023-03-01T08:39:14;6.90;99.90
32095;DHT22;18608;53.688;10.748;2023-03-01T08:41:40;6.80;99.90
32095;DHT22;18608;53.688;10.748;2023-03-01T08:44:06;6.90;99.90
32095;DHT22;18608;53.688;10.748;2023-03-01T08:46:37;6.80;99.90
32095;DHT22;18608;53.688;10.748;2023-03-01T08:49:08;6.90;99.90
32095;DHT22;18608;53.688;10.748;2023-03-01T08:51:34;6.80;99.90
32095;DHT22;18608;53.688;10.748;2023-03-01T08:54:06;6.50;99.90
32095;DHT22;18608;53.688;10.748;2023-03-01T08:56:33;7.60;99.90
32095;DHT22;18608;53.688;10.748;2023-03-01T08:58:59;6.40;99.90
32095;DHT22;18608;53.688;10.748;2023-03-01T09:01:24;6.70;99.90
32095;DHT22;18608;53.688;10.748;2023-03-01T09:03:51;7.50;99.90
32095;DHT22;18608;53.688;10.748;2023-03-01T09:06:17;7.00;99.90
32095;DHT22;18608;53.688;10.748;2023-03-01T09:08:44;7.10;99.90
32095;DHT22;18608;53.688;10.748;2023-03-01T09:11:12;7.20;99.90
32095;DHT22;18608;53.688;10.748;2023-03-01T09:13:38;7.30;99.90
32095;DHT22;18608;53.688;10.748;2023-03-01T09:16:05;7.30;99.90
32095;DHT22;18608;53.688;10.748;2023-03-01T09:18:32;7.40;99.90
32095;DHT22;18608;53.688;10.748;2023-03-01T09:21:09;7.40;99.90
32095;DHT22;18608;53.688;10.748;2023-03-01T09:23:37;7.20;99.90
32095;DHT22;18608;53.688;10.748;2023-03-01T09:26:07;7.50;99.90
32095;DHT22;18608;53.688;10.748;2023-03-01T09:28:37;7.80;99.90
32095;DHT22;18608;53.688;10.748;2023-03-01T09:31:04;7.80;99.90
32095;DHT22;18608;53.688;10.748;2023-03-01T09:33:31;7.60;99.90
32095;DHT22;18608;53.688;10.748;2023-03-01T09:36:01;7.70;99.90
32095;DHT22;18608;53.688;10.748;2023-03-01T09:40:53;7.50;99.90
32095;DHT22;18608;53.688;10.748;2023-03-01T09:45:59;8.00;99.90
32095;DHT22;18608;53.688;10.748;2023-03-01T09:48:27;8.20;99.90
32095;DHT22;18608;53.688;10.748;2023-03-01T09:50:56;8.30;99.90
32095;DHT22;18608;53.688;10.748;2023-03-01T09:53:27;8.60;99.90
32095;DHT22;18608;53.688;10.748;2023-03-01T09:56:03;8.70;99.90
32095;DHT22;18608;53.688;10.748;2023-03-01T10:01:38;8.70;99.90
32095;DHT22;18608;53.688;10.748;2023-03-01T10:09:38;8.20;99.90
32095;DHT22;18608;53.688;10.748;2023-03-01T10:12:10;8.20;99.90
32095;DHT22;18608;53.688;10.748;2023-03-01T10:14:50;7.80;99.90
32095;DHT22;18608;53.688;10.748;2023-03-01T10:17:25;8.10;99.90
32095;DHT22;18608;53.688;10.748;2023-03-01T10:19:51;8.10;99.90
32095;DHT22;18608;53.688;10.748;2023-03-01T10:22:21;8.00;99.90
32095;DHT22;18608;53.688;10.748;2023-03-01T10:24:48;7.80;99.90
32095;DHT22;18608;53.688;10.748;2023-03-01T10:30:13;8.00;99.90
32095;DHT22;18608;53.688;10.748;2023-03-01T10:32:42;8.20;99.90
32095;DHT22;18608;53.688;10.748;2023-03-01T10:35:22;8.50;99.90
32095;DHT22;18608;53.688;10.748;2023-03-01T10:38:17;8.50;99.90
32095;DHT22;18608;53.688;10.748;2023-03-01T10:41:04;8.50;99.90
32095;DHT22;18608;53.688;10.748;2023-03-01T10:46:31;8.60;99.90
32095;DHT22;18608;53.688;10.748;2023-03-01T10:49:07;9.00;99.90
32095;DHT22;18608;53.688;10.748;2023-03-01T10:51:39;9.00;99.90
32095;DHT22;18608;53.688;10.748;2023-03-01T10:54:08;9.00;99.90
32095;DHT22;18608;53.688;10.748;2023-03-01T10:56:49;8.90;99.90
32095;DHT22;18608;53.688;10.748;2023-03-01T10:59:29;8.90;99.90
32095;DHT22;18608;53.688;10.748;2023-03-01T11:04:28;9.00;99.90
32095;DHT22;18608;53.688;10.748;2023-03-01T11:07:01;9.00;99.90
32095;DHT22;18608;53.688;10.748;2023-03-01T11:09:32;8.70;99.90
32095;DHT22;18608;53.688;10.748;2023-03-01T11:12:05;8.60;99.90
32095;DHT22;18608;53.688;10.748;2023-03-01T11:14:38;8.50;99.90
32095;DHT22;18608;53.688;10.748;2023-03-01T11:17:18;8.80;99.90
32095;DHT22;18608;53.688;10.748;2023-03-01T11:20:14;8.60;99.90
32095;DHT22;18608;53.688;10.748;2023-03-01T11:22:50;8.90;99.90
32095;DHT22;18608;53.688;10.748;2023-03-01T11:25:19;8.70;99.90
32095;DHT22;18608;53.688;10.748;2023-03-01T11:27:46;8.60;99.90
32095;DHT22;18608;53.688;10.748;2023-03-01T11:30:27;9.10;99.90
32095;DHT22;18608;53.688;10.748;2023-03-01T11:36:03;8.60;99.90
32095;DHT22;18608;53.688;10.748;2023-03-01T11:38:33;8.50;99.90
32095;DHT22;18608;53.688;10.748;2023-03-01T11:41:15;8.90;99.90
32095;DHT22;18608;53.688;10.748;2023-03-01T11:56:56;9.30;99.90
32095;DHT22;18608;53.688;10.748;2023-03-01T11:59:29;9.30;99.90
32095;DHT22;18608;53.688;10.748;2023-03-01T12:10:25;9.80;99.90
32095;DHT22;18608;53.688;10.748;2023-03-01T12:18:38;9.30;99.90
32095;DHT22;18608;53.688;10.748;2023-03-01T12:23:54;9.30;99.90
32095;DHT22;18608;53.688;10.748;2023-03-01T12:26:27;9.40;99.90
32095;DHT22;18608;53.688;10.748;2023-03-01T12:37:13;8.70;99.90
32095;DHT22;18608;53.688;10.748;2023-03-01T12:43:05;8.70;99.90
32095;DHT22;18608;53.688;10.748;2023-03-01T12:51:14;8.40;99.90
32095;DHT22;18608;53.688;10.748;2023-03-01T12:53:48;8.30;99.90
32095;DHT22;18608;53.688;10.748;2023-03-01T12:56:17;8.50;99.90
32095;DHT22;18608;53.688;10.748;2023-03-01T12:59:03;8.50;99.90
32095;DHT22;18608;53.688;10.748;2023-03-01T13:01:52;8.50;99.90
32095;DHT22;18608;53.688;10.748;2023-03-01T13:10:00;8.50;99.90
32095;DHT22;18608;53.688;10.748;2023-03-01T13:15:24;8.50;99.90
32095;DHT22;18608;53.688;10.748;2023-03-01T13:18:01;8.50;99.90
32095;DHT22;18608;53.688;10.748;2023-03-01T13:26:06;8.60;99.90
32095;DHT22;18608;53.688;10.748;2023-03-01T13:33:57;8.80;99.90
32095;DHT22;18608;53.688;10.748;2023-03-01T13:46:53;8.40;99.90
32095;DHT22;18608;53.688;10.748;2023-03-01T13:49:22;8.30;99.90
32095;DHT22;18608;53.688;10.748;2023-03-01T13:51:50;8.20;99.90
32095;DHT22;18608;53.688;10.748;2023-03-01T13:54:32;8.30;99.90
32095;DHT22;18608;53.688;10.748;2023-03-01T13:56:59;8.30;99.90
32095;DHT22;18608;53.688;10.748;2023-03-01T13:59:26;8.50;99.90
32095;DHT22;18608;53.688;10.748;2023-03-01T14:01:59;9.00;99.90
32095;DHT22;18608;53.688;10.748;2023-03-01T14:04:28;8.60;99.90
32095;DHT22;18608;53.688;10.748;2023-03-01T14:09:43;8.60;99.90
32095;DHT22;18608;53.688;10.748;2023-03-01T14:14:59;8.70;99.90
32095;DHT22;18608;53.688;10.748;2023-03-01T14:20:22;8.70;99.90
32095;DHT22;18608;53.688;10.748;2023-03-01T14:22:51;8.70;99.90
32095;DHT22;18608;53.688;10.748;2023-03-01T14:25:33;8.60;99.90
32095;DHT22;18608;53.688;10.748;2023-03-01T14:28:19;8.40;99.90
32095;DHT22;18608;53.688;10.748;2023-03-01T14:30:50;8.50;99.90
32095;DHT22;18608;53.688;10.748;2023-03-01T14:33:21;8.40;99.90
32095;DHT22;18608;53.688;10.748;2023-03-01T14:36:09;8.30;99.90
32095;DHT22;18608;53.688;10.748;2023-03-01T14:38:45;8.20;99.90
32095;DHT22;18608;53.688;10.748;2023-03-01T14:41:14;8.30;99.90
32095;DHT22;18608;53.688;10.748;2023-03-01T14:43:46;8.20;99.90
32095;DHT22;18608;53.688;10.748;2023-03-01T14:46:21;8.20;99.90
32095;DHT22;18608;53.688;10.748;2023-03-01T14:48:54;8.40;99.90
32095;DHT22;18608;53.688;10.748;2023-03-01T14:51:21;8.40;99.90
32095;DHT22;18608;53.688;10.748;2023-03-01T14:53:47;8.20;99.90
32095;DHT22;18608;53.688;10.748;2023-03-01T14:56:15;8.20;99.90
32095;DHT22;18608;53.688;10.748;2023-03-01T14:58:43;8.20;99.90
32095;DHT22;18608;53.688;10.748;2023-03-01T15:01:14;8.10;99.90
32095;DHT22;18608;53.688;10.748;2023-03-01T15:03:43;7.90;99.90
32095;DHT22;18608;53.688;10.748;2023-03-01T15:06:10;8.00;99.90
32095;DHT22;18608;53.688;10.748;2023-03-01T15:08:44;8.00;99.90
32095;DHT22;18608;53.688;10.748;2023-03-01T15:13:40;7.90;99.90
32095;DHT22;18608;53.688;10.748;2023-03-01T15:18:32;7.60;99.90
32095;DHT22;18608;53.688;10.748;2023-03-01T15:21:19;7.40;99.90
32095;DHT22;18608;53.688;10.748;2023-03-01T15:23:50;7.20;99.90
32095;DHT22;18608;53.688;10.748;2023-03-01T15:26:24;7.00;99.90
32095;DHT22;18608;53.688;10.748;2023-03-01T15:28:52;6.90;99.90
32095;DHT22;18608;53.688;10.748;2023-03-01T15:31:32;6.60;99.90
32095;DHT22;18608;53.688;10.748;2023-03-01T15:34:21;6.30;99.90
32095;DHT22;18608;53.688;10.748;2023-03-01T15:36:47;6.20;99.90
32095;DHT22;18608;53.688;10.748;2023-03-01T15:42:10;5.90;99.90
32095;DHT22;18608;53.688;10.748;2023-03-01T15:44:39;5.80;99.90
32095;DHT22;18608;53.688;10.748;2023-03-01T15:47:23;5.70;99.90
32095;DHT22;18608;53.688;10.748;2023-03-01T15:49:53;5.80;99.90
32095;DHT22;18608;53.688;10.748;2023-03-01T15:52:29;5.60;99.90
32095;DHT22;18608;53.688;10.748;2023-03-01T15:55:01;5.60;99.90
32095;DHT22;18608;53.688;10.748;2023-03-01T15:57:27;5.50;99.90
32095;DHT22;18608;53.688;10.748;2023-03-01T15:59:53;5.20;99.90
32095;DHT22;18608;53.688;10.748;2023-03-01T16:02:18;5.80;99.90
32095;DHT22;18608;53.688;10.748;2023-03-01T16:04:46;5.00;99.90
32095;DHT22;18608;53.688;10.748;2023-03-01T16:07:12;5.00;99.90
32095;DHT22;18608;53.688;10.748;2023-03-01T16:09:38;4.90;99.90
32095;DHT22;18608;53.688;10.748;2023-03-01T16:12:03;4.50;99.90
32095;DHT22;18608;53.688;10.748;2023-03-01T16:14:29;4.30;99.90
32095;DHT22;18608;53.688;10.748;2023-03-01T16:16:55;4.10;99.90
32095;DHT22;18608;53.688;10.748;2023-03-01T16:19:21;3.60;99.90
32095;DHT22;18608;53.688;10.748;2023-03-01T16:21:46;3.50;99.90
32095;DHT22;18608;53.688;10.748;2023-03-01T16:24:14;3.50;99.90
32095;DHT22;18608;53.688;10.748;2023-03-01T16:26:39;3.40;99.90
32095;DHT22;18608;53.688;10.748;2023-03-01T16:29:05;3.20;99.90
32095;DHT22;18608;53.688;10.748;2023-03-01T16:31:31;3.20;99.90
32095;DHT22;18608;53.688;10.748;2023-03-01T16:33:58;3.10;99.90
32095;DHT22;18608;53.688;10.748;2023-03-01T16:36:26;3.10;99.90
32095;DHT22;18608;53.688;10.748;2023-03-01T16:38:54;3.10;99.90
32095;DHT22;18608;53.688;10.748;2023-03-01T16:41:22;3.10;99.90
32095;DHT22;18608;53.688;10.748;2023-03-01T16:46:17;2.90;99.90
32095;DHT22;18608;53.688;10.748;2023-03-01T16:48:43;2.80;99.90
32095;DHT22;18608;53.688;10.748;2023-03-01T16:51:09;2.80;99.90
32095;DHT22;18608;53.688;10.748;2023-03-01T16:53:35;2.70;99.90
32095;DHT22;18608;53.688;10.748;2023-03-01T16:56:02;2.80;99.90
32095;DHT22;18608;53.688;10.748;2023-03-01T16:58:28;2.80;99.90
32095;DHT22;18608;53.688;10.748;2023-03-01T17:00:55;2.70;99.90
32095;DHT22;18608;53.688;10.748;2023-03-01T17:03:22;2.70;99.90
32095;DHT22;18608;53.688;10.748;2023-03-01T17:05:48;2.60;99.90
32095;DHT22;18608;53.688;10.748;2023-03-01T17:08:14;2.60;99.90
32095;DHT22;18608;53.688;10.748;2023-03-01T17:10:40;2.60;99.90
32095;DHT22;18608;53.688;10.748;2023-03-01T17:13:07;2.60;99.90
32095;DHT22;18608;53.688;10.748;2023-03-01T17:18:00;2.60;99.90
32095;DHT22;18608;53.688;10.748;2023-03-01T17:20:26;2.70;99.90
32095;DHT22;18608;53.688;10.748;2023-03-01T17:22:52;2.70;99.90
32095;DHT22;18608;53.688;10.748;2023-03-01T17:25:18;2.80;99.90
32095;DHT22;18608;53.688;10.748;2023-03-01T17:27:44;2.70;99.90
32095;DHT22;18608;53.688;10.748;2023-03-01T17:30:12;2.60;99.90
32095;DHT22;18608;53.688;10.748;2023-03-01T17:32:37;2.60;99.90
32095;DHT22;18608;53.688;10.748;2023-03-01T17:35:03;2.50;99.90
32095;DHT22;18608;53.688;10.748;2023-03-01T17:37:29;2.40;99.90
32095;DHT22;18608;53.688;10.748;2023-03-01T17:39:55;2.50;99.90
32095;DHT22;18608;53.688;10.748;2023-03-01T17:42:20;2.60;99.90
32095;DHT22;18608;53.688;10.748;2023-03-01T17:44:46;2.10;99.90
32095;DHT22;18608;53.688;10.748;2023-03-01T17:47:12;2.50;99.90
32095;DHT22;18608;53.688;10.748;2023-03-01T17:49:37;2.50;99.90
32095;DHT22;18608;53.688;10.748;2023-03-01T17:52:03;2.50;99.90
32095;DHT22;18608;53.688;10.748;2023-03-01T17:54:29;2.40;99.90
32095;DHT22;18608;53.688;10.748;2023-03-01T17:56:54;2.40;99.90